Time;durP1;ratioP1;P1;durP2;ratioP2;P2;SDS_P1;SDS_P2;PMS_P1;PMS_P2;Temp;Humidity;BMP_temperature;BMP_pressure;BME280_temperature;BME280_humidity;BME280_pressure;Samples;Min_cycle;Max_cycle;Signal;HPM_P1;HPM_P2
2023/10/06 00:02:39;;;;;;;;;;;;;;;;;;;;;
2023/10/06 00:05:44;;;;;;;8.80;6.10;;;;;;;10.28;84.40;101063.00;133810;1303;22379;-76
2023/10/06 00:08:54;;;;;;;11.60;6.50;;;;;;;10.28;84.31;101064.40;133930;1303;22609;-76
2023/10/06 00:11:59;;;;;;;13.10;6.70;;;;;;;10.28;84.41;101064.48;133783;1304;22381;-76
2023/10/06 00:15:26;;;;;;;9.60;5.70;;;;;;;10.26;84.53;101068.17;133861;1299;22407;-76
2023/10/06 00:18:40;;;;;;;9.60;5.70;;;;;;;10.23;84.19;101068.03;133985;1304;23015;-76
2023/10/06 00:22:02;;;;;;;9.90;5.90;;;;;;;10.19;84.14;101074.43;133863;1299;22473;-76
2023/10/06 00:25:35;;;;;;;;;;;;;;;;;;;;;
2023/10/06 00:29:04;;;;;;;7.00;5.30;;;;;;;10.11;83.88;101081.33;133858;1298;22427;-76
2023/10/06 00:32:26;;;;;;;8.80;5.50;;;;;;;10.05;83.87;101080.85;133841;1298;23136;-76
2023/10/06 00:35:33;;;;;;;9.60;5.80;;;;;;;9.99;83.91;101084.06;133776;1303;22359;-76
2023/10/06 00:38:50;;;;;;;8.00;6.20;;;;;;;9.96;84.31;101083.95;133829;1299;22454;-75
2023/10/06 00:42:04;;;;;;;7.80;5.30;;;;;;;9.97;84.51;101084.97;133820;1301;23136;-76
2023/10/06 00:45:09;;;;;;;6.70;5.50;;;;;;;9.95;84.38;101087.30;133889;1304;22424;-76
2023/10/06 00:48:26;;;;;;;9.10;6.10;;;;;;;9.90;84.15;101093.92;133913;1303;22321;-76
2023/10/06 00:51:31;;;;;;;8.80;6.20;;;;;;;9.88;84.46;101101.81;133980;1302;22518;-76
2023/10/06 00:54:35;;;;;;;12.00;7.50;;;;;;;9.90;84.80;101100.64;133898;1302;23149;-76
2023/10/06 00:58:00;;;;;;;9.60;6.60;;;;;;;9.92;84.97;101102.73;133900;1301;22369;-76
2023/10/06 01:01:22;;;;;;;9.80;7.00;;;;;;;9.97;85.17;101098.41;133854;1304;22383;-76
2023/10/06 01:04:34;;;;;;;9.70;6.20;;;;;;;10.01;85.47;101097.10;133821;1298;23594;-76
2023/10/06 01:08:01;;;;;;;9.90;6.20;;;;;;;10.03;85.26;101099.39;133980;1301;22448;-76
2023/10/06 01:11:28;;;;;;;;;;;;;;;;;;;;;
2023/10/06 01:14:36;;;;;;;16.00;7.00;;;;;;;10.04;85.50;101094.39;133989;1294;22371;-76
2023/10/06 01:17:42;;;;;;;8.00;5.90;;;;;;;10.01;85.25;101099.58;133952;1303;22644;-76
2023/10/06 01:21:28;;;;;;;;;;;;;;;;;;;;;
2023/10/06 01:24:35;;;;;;;11.30;6.80;;;;;;;10.00;85.41;101089.98;133966;1296;22437;-76
2023/10/06 01:28:03;;;;;;;12.80;7.00;;;;;;;10.01;85.81;101083.11;133995;1300;22569;-76
2023/10/06 01:31:07;;;;;;;11.50;7.10;;;;;;;10.03;85.71;101090.17;133752;1303;23538;-76
2023/10/06 01:34:53;;;;;;;19.60;6.90;;;;;;;10.04;85.74;101088.20;133959;1303;22359;-76
2023/10/06 01:37:45;;;;;;;13.10;8.10;;;;;;;10.07;86.36;101093.02;133878;1299;22245;-76
2023/10/06 01:41:04;;;;;;;12.10;7.70;;;;;;;10.11;86.70;101098.70;133714;1299;22249;-76
2023/10/06 01:44:12;;;;;;;14.30;8.60;;;;;;;10.17;87.00;101102.75;133999;1302;22568;-76
2023/10/06 01:47:29;;;;;;;12.10;8.10;;;;;;;10.22;87.17;101105.61;133870;1298;22513;-76
2023/10/06 01:50:44;;;;;;;;;;;;;;;;;;;;;
2023/10/06 01:53:55;;;;;;;15.00;9.20;;;;;;;10.30;87.55;101106.36;133966;1297;22533;-76
2023/10/06 01:56:57;;;;;;;12.30;9.50;;;;;;;10.35;87.81;101108.73;133963;1305;22957;-76
2023/10/06 02:00:14;;;;;;;15.70;9.80;;;;;;;10.38;87.93;101112.01;133980;1288;23069;-76
2023/10/06 02:03:41;;;;;;;14.80;8.40;;;;;;;10.42;88.22;101116.80;133886;1297;22784;-76
2023/10/06 02:07:23;;;;;;;15.70;8.90;;;;;;;10.45;88.55;101115.42;133812;1299;22226;-76
2023/10/06 02:10:32;;;;;;;14.40;9.40;;;;;;;10.50;88.83;101120.11;133968;1301;22458;-76
2023/10/06 02:13:44;;;;;;;18.50;9.60;;;;;;;10.52;88.88;101123.20;133887;1300;22440;-76
2023/10/06 02:16:59;;;;;;;16.00;9.90;;;;;;;10.55;88.97;101119.10;133863;1298;22185;-76
2023/10/06 02:20:43;;;;;;;;;;;;;;;;;;;;;
2023/10/06 02:24:08;;;;;;;14.50;9.60;;;;;;;10.59;89.31;101121.16;133604;1300;22963;-76
2023/10/06 02:27:47;;;;;;;16.40;9.70;;;;;;;10.62;89.32;101125.71;133875;1304;22674;-76
2023/10/06 02:30:54;;;;;;;15.20;10.60;;;;;;;10.65;89.29;101116.95;133771;1300;22400;-76
2023/10/06 02:34:35;;;;;;;14.60;10.40;;;;;;;10.66;89.41;101118.91;133654;1300;22482;-76
2023/10/06 02:37:40;;;;;;;14.20;9.40;;;;;;;10.68;89.51;101115.45;133891;1301;22427;-76
2023/10/06 02:41:05;;;;;;;19.10;11.30;;;;;;;10.70;89.49;101114.87;134002;1298;22258;-76
2023/10/06 02:44:22;;;;;;;15.80;10.10;;;;;;;10.72;89.57;101117.33;133938;1304;22474;-76
2023/10/06 02:47:30;;;;;;;13.50;9.40;;;;;;;10.74;89.84;101113.45;133929;1304;22406;-76
2023/10/06 02:50:33;;;;;;;13.80;10.00;;;;;;;10.77;89.83;101116.67;133956;1297;22392;-76
2023/10/06 02:53:37;;;;;;;18.40;10.20;;;;;;;10.80;89.82;101122.55;133922;1299;22297;-76
2023/10/06 02:56:58;;;;;;;19.20;10.00;;;;;;;10.85;89.92;101120.07;133788;1300;22379;-76
2023/10/06 03:03:51;;;;;;;14.50;9.20;;;;;;;10.88;89.93;101119.33;133851;1300;23314;-76
2023/10/06 03:07:03;;;;;;;17.10;10.50;;;;;;;10.88;90.20;101114.98;133993;1297;22385;-75
2023/10/06 03:10:48;;;;;;;16.20;10.00;;;;;;;10.87;90.23;101110.41;133975;1301;22295;-76
2023/10/06 03:13:56;;;;;;;14.80;10.20;;;;;;;10.88;90.40;101108.59;133748;1300;22282;-76
2023/10/06 03:17:20;;;;;;;12.80;9.80;;;;;;;10.89;90.34;101111.14;134040;1297;22436;-76
2023/10/06 03:24:05;;;;;;;16.40;9.50;;;;;;;10.92;90.42;101117.20;134007;1297;22417;-76
2023/10/06 03:27:31;;;;;;;17.00;9.80;;;;;;;10.93;90.44;101121.88;134060;1298;22386;-76
2023/10/06 03:30:49;;;;;;;16.40;10.00;;;;;;;10.95;90.61;101119.42;134005;1300;22396;-76
2023/10/06 03:34:07;;;;;;;14.60;9.90;;;;;;;10.95;90.55;101118.58;133867;1298;22276;-76
2023/10/06 03:37:34;;;;;;;18.10;10.10;;;;;;;10.94;90.57;101117.61;133852;1304;22441;-76
2023/10/06 03:41:07;;;;;;;19.40;10.20;;;;;;;10.94;90.50;101118.61;133907;1300;22424;-76
2023/10/06 03:45:04;;;;;;;;;;;;;;;;;;;;;
2023/10/06 03:48:08;;;;;;;15.10;10.40;;;;;;;10.97;90.70;101120.45;134005;1298;23658;-76
2023/10/06 03:51:14;;;;;;;;;;;;;;;10.99;90.71;101124.13;133844;1300;23386;-76
2023/10/06 03:55:04;;;;;;;13.10;9.20;;;;;;;11.03;90.69;101122.23;134005;1298;22398;-76
2023/10/06 03:57:49;;;;;;;16.40;9.30;;;;;;;11.07;90.57;101121.12;133914;1304;22384;-76
2023/10/06 04:00:51;;;;;;;12.50;9.30;;;;;;;11.04;90.66;101117.29;134006;1297;22523;-76
2023/10/06 04:04:19;;;;;;;;;;;;;;;;;;;;;
2023/10/06 04:07:46;;;;;;;13.90;9.60;;;;;;;11.02;90.63;101118.98;133599;1297;22930;-75
2023/10/06 04:11:04;;;;;;;11.70;8.70;;;;;;;11.02;90.60;101122.14;133957;1298;22252;-76
2023/10/06 04:14:38;;;;;;;17.50;10.50;;;;;;;11.04;90.73;101120.51;133912;1291;22390;-76
2023/10/06 04:18:21;;;;;;;13.20;9.70;;;;;;;11.06;90.66;101124.77;133909;1297;22234;-76
2023/10/06 04:21:54;;;;;;;17.90;10.70;;;;;;;11.09;90.69;101122.30;133750;1300;22225;-78
2023/10/06 04:25:20;;;;;;;18.60;10.10;;;;;;;11.11;90.72;101128.73;133691;1299;22484;-78
2023/10/06 04:28:48;;;;;;;16.00;10.80;;;;;;;11.12;90.77;101131.08;134049;1298;22572;-77
2023/10/06 04:32:28;;;;;;;14.60;10.10;;;;;;;11.11;90.77;101133.17;133868;1297;23275;-74
2023/10/06 04:36:18;;;;;;;;;;;;;;;;;;;;;
2023/10/06 04:39:19;;;;;;;15.70;10.40;;;;;;;11.09;90.72;101130.10;133936;1297;22392;-78
2023/10/06 04:42:34;;;;;;;;;;;;;;;;;;;;;
2023/10/06 04:45:56;;;;;;;15.40;11.00;;;;;;;11.11;90.69;101136.27;133914;1298;23441;-78
2023/10/06 04:50:42;;;;;;;14.90;11.30;;;;;;;11.11;90.80;101132.45;133963;1304;22360;-79
2023/10/06 04:54:20;;;;;;;19.00;11.00;;;;;;;11.10;90.74;101140.24;133925;1297;22276;-78
2023/10/06 04:57:48;;;;;;;15.90;11.00;;;;;;;11.13;90.98;101138.05;133705;1298;22394;-79
2023/10/06 05:00:53;;;;;;;13.70;11.40;;;;;;;11.15;91.03;101141.22;133980;1297;22893;-79
2023/10/06 05:04:10;;;;;;;18.90;11.30;;;;;;;11.17;90.95;101144.08;133931;1297;22202;-76
2023/10/06 05:07:40;;;;;;;18.30;11.80;;;;;;;11.18;90.89;101147.84;133811;1297;22386;-79
2023/10/06 05:10:41;;;;;;;15.70;11.60;;;;;;;11.19;91.01;101151.79;133952;1299;22258;-79
2023/10/06 05:18:29;;;;;;;17.00;11.00;;;;;;;11.19;90.96;101167.09;133780;1303;22380;-80
2023/10/06 05:22:12;;;;;;;17.30;12.20;;;;;;;11.16;90.79;101165.02;133825;1304;22185;-80
2023/10/06 05:25:44;;;;;;;15.70;12.60;;;;;;;11.15;90.98;101171.15;133854;1297;22108;-80
2023/10/06 05:30:02;;;;;;;;;;;;;;;;;;;;;
2023/10/06 05:33:04;;;;;;;20.10;13.30;;;;;;;11.16;91.20;101182.77;133797;1300;22416;-80
2023/10/06 05:36:32;;;;;;;17.70;13.80;;;;;;;11.16;91.14;101189.84;133878;1297;22321;-80
2023/10/06 05:39:40;;;;;;;21.90;14.50;;;;;;;11.18;91.30;101187.70;133810;1300;23191;-79
2023/10/06 05:43:21;;;;;;;18.80;13.40;;;;;;;11.18;91.12;101193.75;133611;1300;23292;-79
2023/10/06 05:46:50;;;;;;;23.50;13.20;;;;;;;11.19;91.32;101201.40;133880;1298;22479;-79
2023/10/06 05:50:46;;;;;;;17.80;13.40;;;;;;;11.23;91.24;101202.33;134031;1298;22453;-79
2023/10/06 05:53:48;;;;;;;23.50;13.00;;;;;;;11.27;91.25;101207.06;133557;1301;22372;-79
2023/10/06 05:57:21;;;;;;;19.30;12.80;;;;;;;11.33;91.42;101206.67;133946;1297;22534;-79
2023/10/06 06:01:28;;;;;;;;;;;;;;;;;;;;;
2023/10/06 06:05:39;;;;;;;;;;;;;;;;;;;;;
2023/10/06 06:13:18;;;;;;;;;;;;;;;;;;;;;
2023/10/06 06:16:51;;;;;;;18.10;13.10;;;;;;;11.76;90.97;101215.86;133641;1298;22459;-80
2023/10/06 06:20:21;;;;;;;20.70;12.50;;;;;;;11.85;91.00;101210.94;134019;1297;22421;-77
2023/10/06 06:23:46;;;;;;;18.30;13.70;;;;;;;11.97;91.05;101221.85;133796;1297;23619;-78
2023/10/06 06:27:26;;;;;;;23.30;14.10;;;;;;;12.05;90.90;101227.44;133822;1297;23868;-76
2023/10/06 06:31:18;;;;;;;;;;;;;;;;;;;;;
2023/10/06 06:34:20;;;;;;;17.20;12.20;;;;;;;12.16;90.46;101232.91;133930;1297;22473;-77
2023/10/06 06:37:31;;;;;;;18.60;12.50;;;;;;;12.25;90.51;101231.14;133992;1297;22465;-77
2023/10/06 06:40:46;;;;;;;17.10;11.40;;;;;;;12.81;91.44;101229.55;134045;1297;22343;-76
2023/10/06 06:43:47;;;;;;;16.30;10.40;;;;;;;13.53;91.17;101219.85;134015;1297;22358;-76
2023/10/06 06:47:01;;;;;;;19.60;11.00;;;;;;;14.17;90.41;101217.38;134044;1297;22372;-77
2023/10/06 06:50:06;;;;;;;15.90;10.40;;;;;;;14.77;89.31;101216.30;134054;1297;23111;-76
2023/10/06 06:53:11;;;;;;;17.10;9.60;;;;;;;15.38;88.42;101214.08;133714;1297;410939;-76
2023/10/06 06:57:28;;;;;;;14.60;9.10;;;;;;;15.93;87.48;101205.77;133703;1300;23031;-75
2023/10/06 07:00:16;;;;;;;14.00;9.90;;;;;;;16.52;85.25;101204.62;133930;1297;22290;-76
2023/10/06 07:03:31;;;;;;;;;;;;;;;;;;;;;
2023/10/06 07:06:42;;;;;;;11.40;7.60;;;;;;;17.30;83.40;101207.59;134053;1297;22381;-76
2023/10/06 07:10:11;;;;;;;10.90;7.20;;;;;;;17.67;82.40;101205.58;134099;1297;22978;-76
2023/10/06 07:13:38;;;;;;;12.40;6.90;;;;;;;17.94;80.91;101200.52;133928;1297;24570;-76
2023/10/06 07:16:45;;;;;;;11.40;6.70;;;;;;;18.17;79.86;101198.42;134057;1297;22469;-78
2023/10/06 07:20:06;;;;;;;13.00;6.60;;;;;;;18.44;79.17;101202.17;134038;1304;22463;-77
2023/10/06 07:23:23;;;;;;;10.20;5.70;;;;;;;18.72;77.70;101197.09;134013;1301;22435;-76
2023/10/06 07:26:50;;;;;;;9.80;4.90;;;;;;;18.84;76.70;101194.94;134036;1304;22432;-76
2023/10/06 07:30:28;;;;;;;9.70;5.40;;;;;;;19.06;75.80;101197.08;134046;1297;23067;-76
2023/10/06 07:33:54;;;;;;;7.60;4.90;;;;;;;19.21;74.67;101195.45;133760;1297;23082;-77
2023/10/06 07:37:48;;;;;;;;;;;;;;;;;;;;;
2023/10/06 07:41:41;;;;;;;8.70;3.80;;;;;;;18.92;73.06;101195.20;133812;1297;23284;-77
2023/10/06 07:45:25;;;;;;;8.70;4.70;;;;;;;18.71;72.55;101201.02;134064;1297;22272;-76
2023/10/06 07:49:40;;;;;;;7.30;4.10;;;;;;;18.31;71.18;101201.37;134038;1304;23047;-76
2023/10/06 07:53:01;;;;;;;8.00;4.00;;;;;;;17.77;71.23;101202.33;134030;1297;22204;-78
2023/10/06 07:56:14;;;;;;;8.00;4.30;;;;;;;17.43;71.75;101199.63;134037;1299;23216;-77
2023/10/06 08:00:17;;;;;;;;;;;;;;;;;;;;;
2023/10/06 08:11:49;;;;;;;10.90;4.90;;;;;;;17.81;71.32;101178.46;133879;1297;22264;-73
2023/10/06 08:15:44;;;;;;;10.30;4.60;;;;;;;18.31;71.55;101171.81;133983;1298;22483;-73
2023/10/06 08:18:34;;;;;;;7.90;3.80;;;;;;;18.72;70.54;101160.20;133835;1300;23316;-73
2023/10/06 08:22:10;;;;;;;8.30;4.20;;;;;;;19.20;70.27;101156.52;133973;1297;22322;-73
2023/10/06 08:25:24;;;;;;;7.60;3.90;;;;;;;19.61;68.98;101155.04;133925;1304;22429;-73
2023/10/06 08:28:37;;;;;;;6.80;3.80;;;;;;;20.01;68.34;101156.94;133967;1297;24552;-75
2023/10/06 08:32:03;;;;;;;10.40;4.50;;;;;;;20.19;67.24;101161.90;134048;1300;22446;-73
2023/10/06 08:35:21;;;;;;;11.10;4.80;;;;;;;20.13;66.58;101166.15;133965;1299;22363;-73
2023/10/06 08:38:30;;;;;;;9.00;4.60;;;;;;;20.06;66.28;101167.88;133860;1287;22607;-73
2023/10/06 08:41:50;;;;;;;8.40;4.40;;;;;;;19.93;65.98;101167.17;133997;1297;22309;-73
2023/10/06 08:45:03;;;;;;;10.10;4.70;;;;;;;19.91;65.32;101166.52;133828;1297;22383;-73
2023/10/06 08:48:09;;;;;;;12.10;4.60;;;;;;;19.89;65.08;101164.45;133965;1294;22929;-74
2023/10/06 08:51:33;;;;;;;9.10;4.10;;;;;;;19.83;64.38;101161.15;134031;1304;23202;-73
2023/10/06 08:54:56;;;;;;;7.50;4.60;;;;;;;19.65;64.08;101157.38;133882;1297;22355;-73
2023/10/06 08:58:14;;;;;;;9.00;4.20;;;;;;;19.61;64.24;101166.95;133907;1297;22420;-73
2023/10/06 09:01:34;;;;;;;8.00;4.10;;;;;;;19.59;64.14;101164.84;133924;1297;22397;-74
2023/10/06 09:05:03;;;;;;;7.70;4.20;;;;;;;19.62;64.16;101159.18;133861;1301;23023;-74
2023/10/06 09:08:58;;;;;;;13.20;3.80;;;;;;;19.79;63.81;101149.98;134005;1303;22463;-74
2023/10/06 09:12:17;;;;;;;;;;;;;;;;;;;;;
2023/10/06 09:15:46;;;;;;;;;;;;;;;;;;;;;
2023/10/06 09:19:40;;;;;;;6.30;4.00;;;;;;;20.20;63.14;101160.98;133993;1300;23229;-73
2023/10/06 09:22:56;;;;;;;9.80;4.80;;;;;;;20.47;62.12;101151.86;133931;1302;23529;-73
2023/10/06 09:26:18;;;;;;;7.60;4.10;;;;;;;20.49;61.52;101154.45;133899;1299;22362;-72
2023/10/06 09:30:16;;;;;;;8.70;4.60;;;;;;;20.64;61.50;101139.84;134038;1300;22399;-72
2023/10/06 09:33:27;;;;;;;;;;;;;;;;;;;;;
2023/10/06 09:37:25;;;;;;;6.00;3.50;;;;;;;21.03;60.36;101135.06;134050;1299;22437;-74
2023/10/06 09:40:49;;;;;;;6.40;3.60;;;;;;;20.96;59.28;101138.27;133998;1300;22905;-74
2023/10/06 09:44:17;;;;;;;5.90;3.60;;;;;;;20.97;59.71;101142.59;133991;1297;23018;-73
2023/10/06 09:47:46;;;;;;;8.60;3.70;;;;;;;21.18;59.28;101131.36;133986;1295;22384;-72
2023/10/06 09:51:41;;;;;;;;;;;;;;;;;;;;;
2023/10/06 09:54:48;;;;;;;7.10;3.50;;;;;;;21.35;57.60;101114.63;133970;1300;22581;-73
2023/10/06 09:58:14;;;;;;;5.20;3.40;;;;;;;21.21;57.84;101112.27;134020;1301;22511;-72
2023/10/06 10:01:24;;;;;;;6.90;3.40;;;;;;;21.21;58.28;101102.34;133846;1297;22923;-73
2023/10/06 10:04:31;;;;;;;6.20;3.40;;;;;;;21.38;58.07;101097.15;134001;1298;23427;-72
2023/10/06 10:07:59;;;;;;;10.90;3.40;;;;;;;21.41;57.59;101105.08;133930;1300;22235;-73
2023/10/06 10:11:17;;;;;;;4.60;3.40;;;;;;;21.41;57.37;101108.77;134071;1297;22363;-72
2023/10/06 10:15:14;;;;;;;;;;;;;;;;;;;;;
2023/10/06 10:18:29;;;;;;;5.20;3.10;;;;;;;21.27;56.88;101102.40;134075;1297;22928;-73
2023/10/06 10:21:39;;;;;;;6.30;3.20;;;;;;;21.36;56.63;101086.84;133914;1303;22602;-73
2023/10/06 10:24:51;;;;;;;8.00;3.20;;;;;;;21.39;56.38;101087.80;133794;1300;22458;-72
2023/10/06 10:28:27;;;;;;;6.50;3.60;;;;;;;21.47;56.28;101072.70;134096;1297;22432;-73
2023/10/06 10:32:26;;;;;;;5.80;3.50;;;;;;;21.22;56.12;101077.06;133942;1297;22209;-74
2023/10/06 10:35:32;;;;;;;5.90;3.30;;;;;;;20.86;56.26;101082.44;133777;1301;22507;-75
2023/10/06 10:39:17;;;;;;;4.80;2.70;;;;;;;20.76;56.49;101082.14;134112;1297;23229;-74
2023/10/06 10:42:51;;;;;;;;;;;;;;;;;;;;;
2023/10/06 10:46:12;;;;;;;5.40;2.60;;;;;;;20.84;56.40;101073.86;133942;1299;22450;-74
2023/10/06 10:49:19;;;;;;;4.20;2.20;;;;;;;20.94;55.76;101069.09;133898;1297;23333;-74
2023/10/06 10:52:40;;;;;;;5.40;2.60;;;;;;;20.83;55.49;101071.45;134101;1297;22474;-73
2023/10/06 10:55:47;;;;;;;4.60;3.00;;;;;;;20.68;55.77;101080.57;134094;1297;23669;-74
2023/10/06 10:58:54;;;;;;;6.10;2.70;;;;;;;20.59;55.49;101078.16;133954;1297;22681;-72
2023/10/06 11:01:58;;;;;;;9.20;3.10;;;;;;;20.33;55.63;101073.80;134068;1298;22550;-73
2023/10/06 11:05:08;;;;;;;4.20;2.40;;;;;;;20.17;55.82;101061.24;134034;1297;24946;-73
2023/10/06 11:08:13;;;;;;;4.60;2.80;;;;;;;20.09;56.08;101060.33;133844;1300;22465;-73
2023/10/06 11:11:25;;;;;;;6.00;3.40;;;;;;;19.98;56.03;101063.39;133997;1297;22242;-74
2023/10/06 11:15:24;;;;;;;4.60;2.60;;;;;;;19.89;56.27;101060.94;133989;1297;22418;-76
2023/10/06 11:18:34;;;;;;;5.40;3.10;;;;;;;19.85;56.62;101054.19;133688;1297;22452;-76
2023/10/06 11:22:10;;;;;;;5.90;2.80;;;;;;;19.77;57.02;101053.34;133959;1296;22199;-76
2023/10/06 11:25:17;;;;;;;4.10;2.60;;;;;;;19.65;56.84;101044.89;133807;1305;22499;-76
2023/10/06 11:28:21;;;;;;;3.70;2.70;;;;;;;19.57;57.04;101039.23;133944;1297;23564;-75
2023/10/06 11:31:52;;;;;;;5.40;2.50;;;;;;;19.53;57.22;101037.39;134006;1305;22273;-75
2023/10/06 11:35:01;;;;;;;6.90;2.70;;;;;;;19.63;57.31;101032.36;133940;1297;22238;-76
2023/10/06 11:38:25;;;;;;;3.70;2.40;;;;;;;19.64;57.19;101021.61;133917;1297;23180;-76
2023/10/06 11:41:29;;;;;;;6.00;2.50;;;;;;;19.50;57.34;101005.14;133909;1304;22394;-75
2023/10/06 11:44:46;;;;;;;6.40;2.60;;;;;;;19.42;57.25;101000.81;133917;1297;22283;-78
2023/10/06 11:48:20;;;;;;;5.40;2.60;;;;;;;19.43;57.59;100987.84;133902;1297;22497;-75
2023/10/06 11:55:56;;;;;;;5.50;2.10;;;;;;;19.63;57.33;100965.05;133936;1297;22797;-76
2023/10/06 11:59:00;;;;;;;6.60;3.20;;;;;;;19.70;56.62;100958.44;133957;1299;22490;-75
2023/10/06 12:02:10;;;;;;;6.70;2.60;;;;;;;19.73;56.37;100952.13;133962;1297;22600;-76
2023/10/06 12:08:45;;;;;;;4.10;2.30;;;;;;;19.68;56.33;100941.27;134035;1297;22407;-76
2023/10/06 12:11:50;;;;;;;2.50;2.00;;;;;;;19.61;56.44;100929.39;134076;1299;22428;-76
2023/10/06 12:15:27;;;;;;;3.50;2.30;;;;;;;19.71;56.68;100918.83;134097;1304;22439;-76
2023/10/06 12:19:01;;;;;;;7.60;2.90;;;;;;;19.82;56.53;100910.50;134108;1297;23251;-76
2023/10/06 12:26:17;;;;;;;;;;;;;;;;;;;;;
2023/10/06 12:29:55;;;;;;;3.70;2.40;;;;;;;19.70;56.45;100893.98;134058;1304;22425;-75
2023/10/06 12:33:03;;;;;;;5.00;2.80;;;;;;;19.64;56.65;100895.99;134059;1304;23108;-75
2023/10/06 12:36:26;;;;;;;5.40;2.40;;;;;;;19.63;57.00;100894.54;134094;1298;22585;-75
2023/10/06 12:39:59;;;;;;;5.20;2.50;;;;;;;19.53;56.27;100893.48;134089;1297;22542;-77
2023/10/06 12:47:10;;;;;;;4.00;2.40;;;;;;;19.31;57.13;100902.63;133808;1297;22470;-76
2023/10/06 12:50:40;;;;;;;5.60;2.40;;;;;;;19.36;57.38;100899.16;134084;1303;22390;-75
2023/10/06 12:54:33;;;;;;;5.60;2.40;;;;;;;19.47;57.48;100894.86;134062;1300;22442;-75
2023/10/06 12:58:16;;;;;;;4.00;2.30;;;;;;;19.54;56.77;100879.21;133821;1297;22379;-77
2023/10/06 13:01:36;;;;;;;3.90;2.60;;;;;;;19.47;56.78;100867.74;134057;1297;22451;-75
2023/10/06 13:05:08;;;;;;;5.40;2.60;;;;;;;19.44;57.06;100868.74;134049;1300;23050;-74
2023/10/06 13:09:08;;;;;;;3.80;2.60;;;;;;;19.50;57.22;100873.62;133892;1300;22383;-75
2023/10/06 13:12:51;;;;;;;5.30;2.70;;;;;;;19.50;56.84;100881.86;134086;1298;22282;-76
2023/10/06 13:16:45;;;;;;;3.50;2.40;;;;;;;19.51;56.87;100886.75;133919;1298;22477;-75
2023/10/06 13:20:07;;;;;;;3.90;2.40;;;;;;;19.45;56.86;100884.43;134041;1295;22413;-74
2023/10/06 13:23:46;;;;;;;4.20;2.80;;;;;;;19.34;56.88;100884.63;134004;1297;22345;-74
2023/10/06 13:26:54;;;;;;;3.50;2.50;;;;;;;19.20;56.88;100880.77;134023;1298;22215;-75
2023/10/06 13:30:00;;;;;;;3.60;2.60;;;;;;;19.15;57.03;100867.23;134022;1300;23185;-75
2023/10/06 13:33:25;;;;;;;;;;;;;;;;;;;;;
2023/10/06 13:36:52;;;;;;;2.90;2.60;;;;;;;19.22;57.27;100853.52;134056;1282;22427;-75
2023/10/06 13:40:44;;;;;;;;;;;;;;;;;;;;;
2023/10/06 13:43:58;;;;;;;3.80;2.80;;;;;;;19.21;57.43;100839.62;134052;1298;23137;-74
2023/10/06 13:48:22;;;;;;;3.50;2.90;;;;;;;19.17;57.44;100834.16;134070;1297;22401;-75
2023/10/06 13:51:21;;;;;;;4.70;2.80;;;;;;;19.11;57.63;100831.30;133892;1297;22444;-75
2023/10/06 13:54:45;;;;;;;4.50;2.90;;;;;;;19.11;57.49;100824.92;134068;1297;23225;-73
2023/10/06 13:58:20;;;;;;;5.50;3.20;;;;;;;19.09;57.47;100817.48;134076;1298;22402;-76
2023/10/06 14:01:40;;;;;;;5.70;3.40;;;;;;;19.07;57.31;100823.88;134080;1297;22217;-75
2023/10/06 14:04:59;;;;;;;4.30;3.10;;;;;;;19.04;57.61;100830.18;133873;1300;22442;-70
2023/10/06 14:08:18;;;;;;;;;;;;;;;;;;;;;
2023/10/06 14:11:24;;;;;;;4.40;3.10;;;;;;;18.96;56.99;100825.27;134038;1298;22322;-73
2023/10/06 14:17:59;;;;;;;;;;;;;;;;;;;;;
2023/10/06 14:21:09;;;;;;;7.00;3.50;;;;;;;18.87;57.34;100819.67;134155;1298;22403;-74
2023/10/06 14:24:11;;;;;;;4.80;2.90;;;;;;;18.82;57.30;100810.08;134090;1304;23393;-71
2023/10/06 14:27:36;;;;;;;8.80;3.00;;;;;;;18.72;57.07;100795.52;134112;1299;22465;-71
2023/10/06 14:30:49;;;;;;;5.20;3.10;;;;;;;18.63;57.12;100791.31;134100;1298;23169;-72
2023/10/06 14:34:20;;;;;;;;;;;;;;;;;;;;;
2023/10/06 14:37:36;;;;;;;7.30;3.00;;;;;;;18.45;57.27;100779.48;134023;1298;22583;-71
2023/10/06 14:47:41;;;;;;;8.80;3.40;;;;;;;18.15;57.36;100751.16;133869;1299;23163;-76
2023/10/06 14:50:44;;;;;;;6.20;3.30;;;;;;;18.08;57.43;100745.39;134027;1298;22995;-77
2023/10/06 14:54:09;;;;;;;;;;;;;;;;;;;;;
2023/10/06 14:57:27;;;;;;;9.40;4.40;;;;;;;18.00;57.57;100732.06;134036;1297;22219;-70
2023/10/06 15:00:54;;;;;;;5.90;3.70;;;;;;;17.92;57.67;100724.71;134006;1298;23556;-72
2023/10/06 15:03:59;;;;;;;7.90;3.80;;;;;;;17.85;57.61;100729.02;134005;1297;22263;-73
2023/10/06 15:07:08;;;;;;;7.60;3.40;;;;;;;17.75;57.53;100735.52;134003;1298;22240;-72
2023/10/06 15:10:15;;;;;;;4.50;2.80;;;;;;;17.65;57.54;100730.84;134075;1299;22188;-74
2023/10/06 15:13:22;;;;;;;5.20;2.80;;;;;;;17.53;57.67;100723.09;134057;1297;22215;-74
2023/10/06 15:16:31;;;;;;;8.30;3.80;;;;;;;17.44;57.77;100719.73;134118;1301;22583;-73
2023/10/06 15:19:46;;;;;;;;;;;;;;;;;;;;;
2023/10/06 15:22:51;;;;;;;5.80;3.00;;;;;;;17.35;58.01;100722.06;134110;1303;22528;-73
2023/10/06 15:26:01;;;;;;;4.40;2.90;;;;;;;17.31;57.95;100723.58;134021;1303;22431;-72
2023/10/06 15:29:03;;;;;;;6.30;3.40;;;;;;;17.27;58.03;100729.32;134055;1293;22439;-73
2023/10/06 15:32:13;;;;;;;6.00;2.80;;;;;;;17.21;58.12;100725.90;134047;1298;22413;-72
2023/10/06 15:35:16;;;;;;;4.60;3.30;;;;;;;17.15;58.21;100713.64;133879;1299;22474;-72
2023/10/06 15:38:23;;;;;;;5.30;3.60;;;;;;;17.11;58.36;100697.92;134043;1299;22377;-71
2023/10/06 15:41:30;;;;;;;5.50;3.60;;;;;;;17.07;58.47;100684.38;133733;1298;22403;-72
2023/10/06 15:44:37;;;;;;;7.00;4.10;;;;;;;17.01;58.50;100676.09;134065;1298;22514;-73
2023/10/06 15:47:47;;;;;;;8.10;4.50;;;;;;;16.94;58.63;100674.50;134060;1302;22443;-74
2023/10/06 15:51:07;;;;;;;8.20;4.70;;;;;;;16.84;58.79;100681.61;133927;1300;22500;-72
2023/10/06 15:54:22;;;;;;;9.40;5.40;;;;;;;16.78;59.01;100678.87;134027;1297;22494;-72
2023/10/06 15:57:43;;;;;;;8.10;5.80;;;;;;;16.71;59.05;100677.39;134067;1298;22422;-73
2023/10/06 16:00:46;;;;;;;7.20;5.00;;;;;;;16.59;59.24;100672.09;134007;1298;22455;-73
2023/10/06 16:03:52;;;;;;;8.70;4.70;;;;;;;16.51;59.47;100666.33;134024;1297;23380;-73
2023/10/06 16:06:53;;;;;;;6.00;3.80;;;;;;;16.42;59.66;100660.28;133867;1300;23278;-73
2023/10/06 16:09:54;;;;;;;7.70;4.10;;;;;;;16.34;59.70;100658.47;133872;1305;22453;-74
2023/10/06 16:13:04;;;;;;;4.40;3.00;;;;;;;16.27;59.91;100654.73;134078;1298;22939;-76
2023/10/06 16:16:33;;;;;;;6.00;4.00;;;;;;;16.19;60.18;100654.81;134034;1299;22376;-74
2023/10/06 16:19:52;;;;;;;7.80;3.40;;;;;;;16.10;60.45;100668.84;133817;1298;22625;-77
2023/10/06 16:22:59;;;;;;;7.00;3.50;;;;;;;16.03;60.71;100677.05;133873;1290;22429;-78
2023/10/06 16:26:24;;;;;;;6.50;4.10;;;;;;;15.99;60.92;100670.08;133871;1298;22376;-77
2023/10/06 16:29:40;;;;;;;16.80;8.70;;;;;;;15.97;61.02;100664.30;133698;1299;23562;-74
2023/10/06 16:32:44;;;;;;;22.30;10.90;;;;;;;15.94;61.25;100657.52;134024;1297;22368;-75
2023/10/06 16:35:49;;;;;;;11.20;5.70;;;;;;;15.90;61.45;100643.89;134050;1302;22404;-75
2023/10/06 16:38:53;;;;;;;9.00;3.60;;;;;;;15.87;61.58;100638.41;134055;1304;23167;-76
2023/10/06 16:41:56;;;;;;;8.20;4.00;;;;;;;15.84;61.70;100640.59;133868;1303;22496;-74
2023/10/06 16:45:02;;;;;;;11.70;5.40;;;;;;;15.82;61.83;100646.88;133871;1298;22233;-73
2023/10/06 16:48:09;;;;;;;9.20;5.70;;;;;;;15.82;61.97;100644.83;133812;1298;22227;-73
2023/10/06 16:51:16;;;;;;;12.10;6.10;;;;;;;15.82;62.11;100641.98;134089;1298;22163;-74
2023/10/06 16:54:20;;;;;;;14.80;6.30;;;;;;;15.82;62.16;100640.04;134087;1298;22376;-74
2023/10/06 16:57:27;;;;;;;9.40;4.90;;;;;;;15.81;62.27;100643.00;134042;1297;22591;-75
2023/10/06 17:00:37;;;;;;;6.80;4.10;;;;;;;15.80;62.53;100645.20;134028;1298;22442;-73
2023/10/06 17:03:44;;;;;;;9.10;3.90;;;;;;;15.79;62.74;100639.95;134045;1299;22499;-74
2023/10/06 17:06:48;;;;;;;7.80;4.50;;;;;;;15.77;62.66;100633.72;134020;1299;22420;-74
2023/10/06 17:10:08;;;;;;;;;;;;;;;;;;;;;